createdAt,value
2018-11-10T00:00:24.699Z,414.67
2018-11-10T00:00:59.799Z,385.60
2018-11-10T00:01:34.861Z,325.75
2018-11-10T00:02:09.741Z,354.95
2018-11-10T00:02:45.399Z,378.25
2018-11-10T00:03:20.699Z,385.38
2018-11-10T00:03:55.819Z,399.92
2018-11-10T00:04:30.919Z,380.05
2018-11-10T00:05:06.439Z,491.25
2018-11-10T00:05:41.463Z,591.23
2018-11-10T00:06:16.419Z,839.38
2018-11-10T00:06:53.719Z,718.45
2018-11-10T00:07:28.679Z,573.62
2018-11-10T00:08:03.697Z,635.42
2018-11-10T00:08:38.523Z,747.87
2018-11-10T00:09:13.303Z,620.30
2018-11-10T00:09:48.400Z,670.67
2018-11-10T00:10:23.419Z,339.82
2018-11-10T00:10:58.399Z,408.10
2018-11-10T00:11:33.539Z,409.57
2018-11-10T00:12:08.359Z,353.23
2018-11-10T00:12:43.222Z,354.27
2018-11-10T00:13:18.159Z,354.23
2018-11-10T00:13:53.059Z,288.00
2018-11-10T00:14:28.040Z,354.85
2018-11-10T00:15:02.819Z,404.40
2018-11-10T00:15:38.168Z,428.05
2018-11-10T00:16:13.218Z,499.10
2018-11-10T00:16:48.141Z,478.80
2018-11-10T00:17:23.359Z,513.63
2018-11-10T00:17:58.379Z,557.77
2018-11-10T00:18:33.340Z,570.10
2018-11-10T00:19:08.119Z,552.37
2018-11-10T00:19:43.018Z,628.95
2018-11-10T00:20:17.840Z,512.88
2018-11-10T00:20:52.707Z,317.27
2018-11-10T00:21:28.099Z,322.05
2018-11-10T00:22:02.979Z,471.63
2018-11-10T00:22:38.740Z,431.13
2018-11-10T00:23:13.379Z,330.35
2018-11-10T00:23:48.259Z,355.15
2018-11-10T00:24:23.459Z,341.25
2018-11-10T00:24:58.683Z,366.48
2018-11-10T00:25:33.501Z,373.55
2018-11-10T00:26:08.319Z,371.18
2018-11-10T00:26:43.119Z,445.40
2018-11-10T00:27:18.179Z,424.77
2018-11-10T00:27:53.220Z,536.95
2018-11-10T00:28:28.062Z,476.30
2018-11-10T00:29:02.941Z,364.12
2018-11-10T00:29:37.899Z,345.65
2018-11-10T00:30:14.899Z,458.95
2018-11-10T00:30:49.483Z,436.40
2018-11-10T00:31:24.439Z,435.10
2018-11-10T00:31:59.500Z,555.03
2018-11-10T00:32:34.379Z,517.70
2018-11-10T00:33:09.239Z,337.98
2018-11-10T00:33:44.179Z,502.73
2018-11-10T00:34:22.342Z,343.95
2018-11-10T00:34:57.260Z,325.05
2018-11-10T00:35:32.179Z,319.23
2018-11-10T00:36:07.203Z,374.88
2018-11-10T00:36:42.000Z,339.48
2018-11-10T00:37:16.899Z,345.85
2018-11-10T00:37:51.743Z,497.63
2018-11-10T00:38:26.480Z,472.37
2018-11-10T00:39:01.380Z,381.47
2018-11-10T00:39:36.222Z,377.43
2018-11-10T00:40:13.159Z,379.45
2018-11-10T00:40:48.360Z,409.55
2018-11-10T00:41:23.000Z,371.62
2018-11-10T00:42:04.459Z,370.17
2018-11-10T00:42:39.579Z,385.27
2018-11-10T00:43:14.719Z,405.30
2018-11-10T00:43:49.519Z,365.82
2018-11-10T00:44:24.662Z,494.10
2018-11-10T00:44:59.759Z,518.52
2018-11-10T00:45:34.560Z,390.18
2018-11-10T00:46:09.760Z,328.70
2018-11-10T00:46:44.659Z,343.90
2018-11-10T00:47:20.180Z,403.30
2018-11-10T00:47:55.199Z,468.02
2018-11-10T00:48:30.079Z,510.65
2018-11-10T00:49:05.460Z,469.73
2018-11-10T00:49:40.569Z,433.00
2018-11-10T00:50:15.749Z,375.65
2018-11-10T00:50:50.720Z,365.30
2018-11-10T00:51:25.519Z,357.67
2018-11-10T00:52:00.920Z,338.68
2018-11-10T00:52:35.900Z,323.93
2018-11-10T00:53:10.921Z,436.10
2018-11-10T00:53:45.821Z,322.93
2018-11-10T00:54:20.839Z,308.27
2018-11-10T00:54:55.880Z,345.50
2018-11-10T00:56:33.880Z,341.60
2018-11-10T00:57:08.663Z,514.05
2018-11-10T00:57:43.759Z,509.07
2018-11-10T00:58:19.780Z,631.02
2018-11-10T00:58:57.940Z,371.07
2018-11-10T00:59:32.896Z,435.13
2018-11-10T01:00:10.088Z,447.70
2018-11-10T01:00:45.199Z,476.22
2018-11-10T01:01:20.041Z,484.73
2018-11-10T01:01:55.181Z,462.62
2018-11-10T01:02:30.640Z,452.58
2018-11-10T01:03:05.828Z,417.30
2018-11-10T01:03:40.740Z,362.93
2018-11-10T01:04:15.859Z,390.02
2018-11-10T01:04:50.882Z,404.85
2018-11-10T01:05:26.329Z,424.92
2018-11-10T01:06:01.661Z,441.02
2018-11-10T01:06:36.440Z,464.00
2018-11-10T01:07:11.661Z,481.07
2018-11-10T01:07:47.079Z,439.93
2018-11-10T01:08:22.040Z,521.98
2018-11-10T01:08:57.161Z,610.17
2018-11-10T01:09:31.999Z,384.80
2018-11-10T01:10:07.580Z,587.88
2018-11-10T01:10:46.039Z,464.65
2018-11-10T01:11:20.999Z,423.78
2018-11-10T01:11:56.241Z,510.60
2018-11-10T01:12:31.380Z,486.30
2018-11-10T01:13:06.500Z,529.33
2018-11-10T01:13:41.988Z,344.05
2018-11-10T01:14:17.239Z,435.10
2018-11-10T01:14:52.439Z,541.40
2018-11-10T01:15:27.579Z,520.48
2018-11-10T01:16:02.963Z,587.42
2018-11-10T01:16:37.899Z,462.60
2018-11-10T01:17:12.980Z,472.77
2018-11-10T01:17:48.379Z,473.73
2018-11-10T01:18:23.402Z,490.77
2018-11-10T01:18:58.319Z,353.70
2018-11-10T01:19:33.481Z,456.10
2018-11-10T01:20:09.599Z,412.02
2018-11-10T01:20:44.340Z,353.37
2018-11-10T01:21:19.240Z,376.58
2018-11-10T01:22:00.240Z,314.25
2018-11-10T01:22:35.282Z,322.10
2018-11-10T01:23:10.459Z,365.50
2018-11-10T01:23:45.021Z,352.20
2018-11-10T01:24:19.881Z,355.83
2018-11-10T01:24:55.103Z,363.10
2018-11-10T01:25:30.140Z,433.05
2018-11-10T01:26:05.320Z,412.35
2018-11-10T01:26:40.380Z,357.20
2018-11-10T01:27:15.060Z,301.73
2018-11-10T01:27:49.619Z,348.10
2018-11-10T01:28:24.159Z,393.12
2018-11-10T01:28:58.740Z,424.05
2018-11-10T01:29:33.362Z,363.70
2018-11-10T01:30:10.400Z,459.07
2018-11-10T01:30:44.865Z,521.50
2018-11-10T01:31:19.421Z,462.95
2018-11-10T01:31:54.040Z,356.82
2018-11-10T01:32:28.520Z,296.05
2018-11-10T01:33:03.227Z,341.88
2018-11-10T01:33:37.701Z,464.97
2018-11-10T01:34:12.419Z,514.40
2018-11-10T01:34:47.147Z,709.48
2018-11-10T01:35:21.840Z,570.05
2018-11-10T01:35:56.524Z,928.55
2018-11-10T01:36:31.040Z,961.12
2018-11-10T01:37:05.528Z,604.38
2018-11-10T01:37:40.160Z,450.48
2018-11-10T01:38:14.700Z,367.48
2018-11-10T01:38:49.367Z,325.52
2018-11-10T01:39:23.800Z,345.80
2018-11-10T01:39:58.407Z,363.10
2018-11-10T01:40:33.020Z,378.98
2018-11-10T01:41:07.499Z,326.73
2018-11-10T01:41:42.259Z,317.48
2018-11-10T01:42:17.265Z,330.48
2018-11-10T01:42:52.180Z,414.43
2018-11-10T01:43:27.321Z,516.65
2018-11-10T01:44:02.181Z,507.05
2018-11-10T01:44:37.200Z,354.43
2018-11-10T01:45:15.599Z,468.80
2018-11-10T01:45:50.560Z,468.00
2018-11-10T01:46:25.659Z,447.85
2018-11-10T01:47:00.621Z,316.38
2018-11-10T01:47:35.601Z,317.73
2018-11-10T01:48:11.760Z,490.12
2018-11-10T01:48:47.039Z,468.00
2018-11-10T01:49:21.919Z,370.07
2018-11-10T01:49:57.199Z,517.22
2018-11-10T01:50:32.488Z,883.05
2018-11-10T01:51:07.140Z,902.80
2018-11-10T01:51:41.608Z,536.25
2018-11-10T01:52:16.147Z,364.93
2018-11-10T01:52:50.820Z,293.25
2018-11-10T01:53:25.361Z,319.52
2018-11-10T01:54:00.200Z,344.37
2018-11-10T01:54:34.691Z,1036.72
2018-11-10T01:55:09.988Z,720.60
2018-11-10T01:55:44.720Z,351.65
2018-11-10T01:56:19.319Z,381.55
2018-11-10T01:56:54.000Z,294.75
2018-11-10T01:57:28.579Z,402.00
2018-11-10T01:58:03.119Z,360.27
2018-11-10T01:58:37.768Z,398.57
2018-11-10T01:59:12.448Z,383.57
2018-11-10T01:59:46.860Z,446.80
2018-11-10T02:00:21.459Z,610.40
2018-11-10T02:00:56.127Z,652.10
2018-11-10T02:01:30.819Z,353.50
2018-11-10T02:02:05.549Z,293.40
2018-11-10T02:02:40.461Z,855.63
2018-11-10T02:03:15.021Z,634.15
2018-11-10T02:03:50.339Z,1035.38
2018-11-10T02:04:25.521Z,642.17
2018-11-10T02:05:00.402Z,709.83
2018-11-10T02:05:35.282Z,295.00
2018-11-10T02:06:10.240Z,294.15
2018-11-10T02:06:45.701Z,294.80
2018-11-10T02:07:20.803Z,329.48
2018-11-10T02:07:55.842Z,371.73
2018-11-10T02:08:30.960Z,448.50
2018-11-10T02:09:07.583Z,331.10
2018-11-10T02:09:42.447Z,384.92
2018-11-10T02:10:17.639Z,375.00
2018-11-10T02:10:52.782Z,245.82
2018-11-10T02:11:28.081Z,275.07
2018-11-10T02:12:04.208Z,302.00
2018-11-10T02:12:40.140Z,335.77
2018-11-10T02:13:15.180Z,340.85
2018-11-10T02:13:50.420Z,351.45
2018-11-10T02:14:25.688Z,364.77
2018-11-10T02:15:00.539Z,331.23
2018-11-10T02:15:35.442Z,388.52
2018-11-10T02:16:10.621Z,391.50
2018-11-10T02:16:46.101Z,433.83
2018-11-10T02:17:20.968Z,397.37
2018-11-10T02:17:55.520Z,317.13
2018-11-10T02:18:30.360Z,283.55
2018-11-10T02:19:05.344Z,258.13
2018-11-10T02:19:40.463Z,272.27
2018-11-10T02:20:16.062Z,275.25
2018-11-10T02:20:51.201Z,249.12
2018-11-10T02:21:26.267Z,275.22
2018-11-10T02:22:01.220Z,320.17
2018-11-10T02:22:36.300Z,255.15
2018-11-10T02:23:11.341Z,263.23
2018-11-10T02:23:46.527Z,269.80
2018-11-10T02:24:21.300Z,278.27
2018-11-10T02:24:56.359Z,357.98
2018-11-10T02:25:31.520Z,355.37
2018-11-10T02:26:06.720Z,305.35
2018-11-10T02:26:44.882Z,346.32
2018-11-10T02:27:21.979Z,383.23
2018-11-10T02:27:57.079Z,377.30
2018-11-10T02:28:31.960Z,427.20
2018-11-10T02:29:06.827Z,532.08
2018-11-10T02:29:41.895Z,676.02
2018-11-10T02:30:16.787Z,368.20
2018-11-10T02:30:51.900Z,319.73
2018-11-10T02:31:26.960Z,363.70
2018-11-10T02:32:02.001Z,367.30
2018-11-10T02:32:37.259Z,511.45
2018-11-10T02:33:12.259Z,409.80
2018-11-10T02:33:47.167Z,320.52
2018-11-10T02:34:22.043Z,325.60
2018-11-10T02:34:57.139Z,292.27
2018-11-10T02:35:32.039Z,277.80
2018-11-10T02:36:07.082Z,283.70
2018-11-10T02:36:42.180Z,311.65
2018-11-10T02:37:17.402Z,380.00
2018-11-10T02:37:52.661Z,387.55
2018-11-10T02:38:27.803Z,370.23
2018-11-10T02:39:02.701Z,429.70
2018-11-10T02:39:37.740Z,456.27
2018-11-10T02:40:14.679Z,425.90
2018-11-10T02:40:49.740Z,295.88
2018-11-10T02:41:25.042Z,756.30
2018-11-10T02:42:00.221Z,689.60
2018-11-10T02:42:35.401Z,534.00
2018-11-10T02:43:10.720Z,599.33
2018-11-10T02:43:45.703Z,778.25
2018-11-10T02:44:20.836Z,424.25
2018-11-10T02:44:55.819Z,369.98
2018-11-10T02:45:31.060Z,454.18
2018-11-10T02:46:05.948Z,499.08
2018-11-10T02:46:40.783Z,409.55
2018-11-10T02:47:16.059Z,397.82
2018-11-10T02:47:51.160Z,354.10
2018-11-10T02:48:26.319Z,324.73
2018-11-10T02:49:01.321Z,302.93
2018-11-10T02:49:36.659Z,316.17
2018-11-10T02:50:12.100Z,413.40
2018-11-10T02:50:47.261Z,317.07
2018-11-10T02:51:22.359Z,374.58
2018-11-10T02:51:57.267Z,330.62
2018-11-10T02:52:32.396Z,371.27
2018-11-10T02:53:07.579Z,275.98
2018-11-10T02:53:42.748Z,341.98
2018-11-10T02:54:19.821Z,336.77
2018-11-10T02:54:55.162Z,323.48
2018-11-10T02:55:30.361Z,450.05
2018-11-10T02:56:05.442Z,497.95
2018-11-10T02:56:40.340Z,597.30
2018-11-10T02:57:15.540Z,611.77
2018-11-10T02:57:50.660Z,362.90
2018-11-10T02:58:25.780Z,420.77
2018-11-10T02:59:00.740Z,392.20
2018-11-10T02:59:35.580Z,513.52
2018-11-10T03:00:12.899Z,562.67
2018-11-10T03:00:47.908Z,512.10
2018-11-10T03:01:22.787Z,553.58
2018-11-10T03:01:58.047Z,701.35
2018-11-10T03:02:33.100Z,811.85
2018-11-10T03:03:08.222Z,624.67
2018-11-10T03:03:43.460Z,668.52
2018-11-10T03:04:18.621Z,551.73
2018-11-10T03:04:53.619Z,433.30
2018-11-10T03:05:28.607Z,580.95
2018-11-10T03:06:03.739Z,451.87
2018-11-10T03:06:38.760Z,380.60
2018-11-10T03:07:14.260Z,317.50
2018-11-10T03:07:49.299Z,304.40
2018-11-10T03:08:24.359Z,288.57
2018-11-10T03:09:00.000Z,268.37
2018-11-10T03:09:35.120Z,284.77
2018-11-10T03:10:11.421Z,295.55
2018-11-10T03:10:46.564Z,309.73
2018-11-10T03:11:21.667Z,296.27
2018-11-10T03:11:57.040Z,323.35
2018-11-10T03:12:32.182Z,338.15
2018-11-10T03:13:07.509Z,292.85
2018-11-10T03:13:42.719Z,307.67
2018-11-10T03:14:17.940Z,300.68
2018-11-10T03:14:52.999Z,415.98
2018-11-10T03:15:27.900Z,335.68
2018-11-10T03:16:02.860Z,358.57
2018-11-10T03:16:37.800Z,377.48
2018-11-10T03:17:14.401Z,396.30
2018-11-10T03:17:49.299Z,302.62
2018-11-10T03:18:23.980Z,326.67
2018-11-10T03:18:58.883Z,366.00
2018-11-10T03:19:33.568Z,309.43
2018-11-10T03:20:10.328Z,306.75
2018-11-10T03:20:45.223Z,354.30
2018-11-10T03:21:20.120Z,390.57
2018-11-10T03:21:55.140Z,394.05
2018-11-10T03:22:30.081Z,356.17
2018-11-10T03:23:05.044Z,391.12
2018-11-10T03:23:39.880Z,361.87
2018-11-10T03:24:14.740Z,432.38
2018-11-10T03:24:49.761Z,471.77
2018-11-10T03:25:24.927Z,503.12
2018-11-10T03:26:01.602Z,962.15
2018-11-10T03:26:36.223Z,662.27
2018-11-10T03:27:11.284Z,628.35
2018-11-10T03:27:46.240Z,486.58
2018-11-10T03:28:20.940Z,471.00
2018-11-10T03:28:55.567Z,501.10
2018-11-10T03:29:30.540Z,615.05
2018-11-10T03:30:05.488Z,826.22
2018-11-10T03:30:40.301Z,487.23
2018-11-10T03:31:15.148Z,504.38
2018-11-10T03:31:50.199Z,509.73
2018-11-10T03:32:25.009Z,590.00
2018-11-10T03:32:59.880Z,666.25
2018-11-10T03:33:34.759Z,577.83
2018-11-10T03:34:09.619Z,662.10
2018-11-10T03:34:44.500Z,930.05
2018-11-10T03:35:19.400Z,762.83
2018-11-10T03:35:54.260Z,521.22
2018-11-10T03:36:28.919Z,336.27
2018-11-10T03:37:03.899Z,417.27
2018-11-10T03:37:38.999Z,457.27
2018-11-10T03:38:13.720Z,656.15
2018-11-10T03:38:48.679Z,420.95
2018-11-10T03:39:23.468Z,614.20
2018-11-10T03:39:58.380Z,819.58
2018-11-10T03:40:33.205Z,1115.90
2018-11-10T03:41:08.020Z,576.30
2018-11-10T03:41:43.480Z,317.50
2018-11-10T03:42:18.499Z,389.30
2018-11-10T03:42:53.788Z,307.07
2018-11-10T03:43:28.463Z,368.05
2018-11-10T03:44:03.639Z,376.85
2018-11-10T03:44:38.760Z,421.18
2018-11-10T03:45:13.859Z,384.30
2018-11-10T03:45:48.460Z,335.68
2018-11-10T03:46:23.200Z,425.68
2018-11-10T03:46:57.888Z,319.05
2018-11-10T03:47:32.342Z,527.78
2018-11-10T03:48:06.960Z,369.50
2018-11-10T03:48:41.485Z,466.30
2018-11-10T03:49:16.139Z,377.02
2018-11-10T03:49:51.067Z,327.95
2018-11-10T03:50:25.861Z,313.52
2018-11-10T03:51:00.660Z,327.73
2018-11-10T03:51:35.400Z,330.92
2018-11-10T03:52:09.980Z,322.95
2018-11-10T03:52:44.762Z,394.23
2018-11-10T03:53:19.181Z,415.65
2018-11-10T03:53:53.979Z,355.35
2018-11-10T03:54:28.661Z,283.55
2018-11-10T03:55:03.260Z,317.80
2018-11-10T03:55:37.880Z,340.25
2018-11-10T03:56:12.500Z,393.63
2018-11-10T03:56:47.340Z,361.80
2018-11-10T03:58:03.399Z,362.45
2018-11-10T03:58:38.579Z,349.82
2018-11-10T03:59:13.761Z,340.70
2018-11-10T03:59:48.739Z,376.27
2018-11-10T04:00:23.400Z,409.22
2018-11-10T04:00:58.280Z,403.12
2018-11-10T04:01:33.401Z,384.62
2018-11-10T04:02:08.440Z,419.62
2018-11-10T04:02:44.420Z,410.32
2018-11-10T04:03:19.199Z,414.55
2018-11-10T04:03:54.059Z,348.25
2018-11-10T04:04:29.088Z,300.82
2018-11-10T04:05:04.002Z,388.82
2018-11-10T04:05:38.763Z,496.12
2018-11-10T04:06:13.702Z,342.48
2018-11-10T04:06:48.739Z,388.50
2018-11-10T04:07:23.860Z,372.17
2018-11-10T04:07:59.761Z,395.00
2018-11-10T04:08:34.620Z,327.98
2018-11-10T04:09:10.022Z,302.70
2018-11-10T04:09:44.840Z,401.10
2018-11-10T04:10:19.760Z,421.77
2018-11-10T04:10:54.640Z,391.25
2018-11-10T04:11:29.602Z,383.15
2018-11-10T04:12:04.801Z,451.40
2018-11-10T04:12:39.499Z,525.20
2018-11-10T04:13:14.241Z,751.50
2018-11-10T04:13:49.248Z,460.45
2018-11-10T04:14:24.179Z,399.90
2018-11-10T04:14:58.999Z,467.87
2018-11-10T04:15:34.159Z,380.98
2018-11-10T04:16:09.059Z,360.82
2018-11-10T04:16:44.261Z,386.25
2018-11-10T04:17:19.379Z,430.80
2018-11-10T04:17:54.280Z,397.88
2018-11-10T04:18:29.340Z,509.98
2018-11-10T04:19:04.423Z,399.77
2018-11-10T04:19:39.459Z,345.23
2018-11-10T04:20:14.340Z,530.08
2018-11-10T04:20:49.379Z,606.00
2018-11-10T04:21:24.545Z,422.82
2018-11-10T04:21:59.861Z,336.30
2018-11-10T04:22:36.403Z,356.20
2018-11-10T04:23:11.223Z,388.42
2018-11-10T04:23:46.119Z,395.85
2018-11-10T04:24:21.081Z,420.32
2018-11-10T04:24:56.080Z,429.90
2018-11-10T04:25:31.271Z,363.12
2018-11-10T04:26:06.281Z,290.92
2018-11-10T04:26:41.440Z,314.98
2018-11-10T04:27:17.008Z,392.95
2018-11-10T04:27:51.902Z,390.87
2018-11-10T04:28:27.001Z,454.83
2018-11-10T04:29:01.849Z,442.22
2018-11-10T04:29:36.840Z,460.63
2018-11-10T04:30:12.399Z,387.50
2018-11-10T04:30:48.880Z,297.40
2018-11-10T04:31:23.680Z,304.65
2018-11-10T04:31:58.460Z,289.38
2018-11-10T04:32:33.700Z,449.32
2018-11-10T04:33:08.640Z,438.25
2018-11-10T04:33:44.359Z,342.95
2018-11-10T04:34:19.480Z,342.35
2018-11-10T04:34:54.583Z,375.07
2018-11-10T04:35:29.560Z,371.10
2018-11-10T04:36:04.215Z,336.55
2018-11-10T04:36:38.973Z,367.82
2018-11-10T04:37:13.694Z,387.40
2018-11-10T04:37:48.494Z,311.18
2018-11-10T04:38:23.234Z,334.70
2018-11-10T04:38:58.161Z,357.37
2018-11-10T04:39:32.962Z,385.55
2018-11-10T04:40:08.494Z,327.43
2018-11-10T04:40:43.322Z,382.45
2018-11-10T04:41:18.122Z,386.48
2018-11-10T04:41:53.154Z,416.85
2018-11-10T04:42:28.317Z,358.47
2018-11-10T04:43:03.415Z,378.48
2018-11-10T04:43:38.434Z,414.80
2018-11-10T04:44:13.474Z,448.25
2018-11-10T04:44:48.634Z,449.35
2018-11-10T04:45:23.894Z,455.65
2018-11-10T04:45:59.014Z,383.55
2018-11-10T04:46:34.198Z,394.75
2018-11-10T04:47:09.534Z,364.88
2018-11-10T04:47:44.735Z,362.55
2018-11-10T04:48:19.714Z,348.52
2018-11-10T04:48:54.934Z,337.23
2018-11-10T04:49:30.154Z,422.80
2018-11-10T04:50:06.334Z,429.40
2018-11-10T04:50:41.654Z,426.02
2018-11-10T04:51:16.634Z,376.85
2018-11-10T04:51:52.154Z,343.23
2018-11-10T04:52:27.017Z,360.20
2018-11-10T04:53:02.139Z,339.48
2018-11-10T04:53:37.194Z,404.00
2018-11-10T04:54:12.174Z,397.63
2018-11-10T04:54:47.582Z,435.73
2018-11-10T04:55:22.743Z,336.55
2018-11-10T04:55:57.749Z,430.25
2018-11-10T04:56:32.774Z,358.47
2018-11-10T04:57:07.922Z,404.40
2018-11-10T04:57:43.334Z,447.73
2018-11-10T04:58:18.618Z,415.52
2018-11-10T04:58:54.294Z,458.10
2018-11-10T04:59:29.756Z,499.55
2018-11-10T05:00:05.283Z,520.95
2018-11-10T05:00:40.494Z,480.33
2018-11-10T05:01:15.651Z,537.98
2018-11-10T05:01:51.375Z,432.65
2018-11-10T05:02:26.542Z,415.98
2018-11-10T05:03:01.775Z,420.05
2018-11-10T05:03:37.014Z,398.02
2018-11-10T05:04:12.194Z,395.50
2018-11-10T05:04:47.254Z,447.27
2018-11-10T05:05:25.075Z,432.25
2018-11-10T05:06:00.414Z,471.75
2018-11-10T05:06:35.454Z,430.18
2018-11-10T05:07:11.394Z,381.65
2018-11-10T05:07:46.823Z,378.67
2018-11-10T05:08:22.084Z,398.43
2018-11-10T05:08:57.343Z,393.20
2018-11-10T05:09:32.834Z,401.00
2018-11-10T05:10:09.894Z,441.73
2018-11-10T05:10:45.394Z,456.55
2018-11-10T05:11:20.878Z,446.50
2018-11-10T05:11:56.694Z,441.00
2018-11-10T05:12:32.074Z,397.33
2018-11-10T05:13:07.582Z,403.15
2018-11-10T05:13:43.404Z,435.78
2018-11-10T05:14:18.849Z,480.63
2018-11-10T05:14:54.254Z,433.42
2018-11-10T05:15:29.822Z,454.48
2018-11-10T05:16:05.354Z,462.52
2018-11-10T05:16:40.614Z,422.82
2018-11-10T05:17:16.194Z,410.50
2018-11-10T05:17:51.394Z,399.50
2018-11-10T05:18:26.713Z,505.20
2018-11-10T05:19:01.722Z,599.17
2018-11-10T05:19:37.262Z,480.90
2018-11-10T05:20:14.374Z,540.15
2018-11-10T05:20:49.942Z,416.48
2018-11-10T05:21:25.437Z,384.55
2018-11-10T05:22:00.574Z,370.02
2018-11-10T05:22:37.622Z,375.70
2018-11-10T05:23:12.934Z,359.67
2018-11-10T05:23:48.102Z,402.58
2018-11-10T05:24:23.415Z,386.40
2018-11-10T05:24:58.974Z,457.15
2018-11-10T05:25:34.446Z,415.92
2018-11-10T05:26:09.774Z,392.90
2018-11-10T05:26:44.977Z,387.40
2018-11-10T05:27:20.234Z,385.73
2018-11-10T05:27:55.422Z,403.85
2018-11-10T05:28:30.522Z,378.55
2018-11-10T05:29:06.654Z,349.82
2018-11-10T05:29:42.202Z,364.93
2018-11-10T05:30:17.334Z,335.57
2018-11-10T05:30:52.581Z,317.18
2018-11-10T05:31:27.794Z,322.82
2018-11-10T05:32:03.054Z,345.73
2018-11-10T05:32:38.376Z,350.18
2018-11-10T05:33:13.402Z,325.80
2018-11-10T05:33:48.385Z,292.92
2018-11-10T05:34:23.417Z,278.12
2018-11-10T05:34:59.282Z,301.88
2018-11-10T05:35:34.333Z,328.15
2018-11-10T05:36:09.522Z,284.75
2018-11-10T05:36:44.602Z,325.65
2018-11-10T05:37:19.714Z,315.35
2018-11-10T05:37:54.674Z,325.62
2018-11-10T05:38:29.782Z,297.90
2018-11-10T05:39:05.554Z,318.15
2018-11-10T05:39:40.374Z,261.15
2018-11-10T05:40:15.494Z,309.00
2018-11-10T05:40:50.610Z,338.43
2018-11-10T05:41:25.774Z,313.82
2018-11-10T05:42:00.674Z,325.68
2018-11-10T05:42:35.734Z,350.60
2018-11-10T05:43:10.716Z,315.10
2018-11-10T05:43:45.717Z,304.27
2018-11-10T05:44:20.721Z,284.50
2018-11-10T05:44:55.933Z,312.98
2018-11-10T05:45:30.794Z,308.95
2018-11-10T05:46:05.858Z,285.80
2018-11-10T05:46:40.894Z,313.60
2018-11-10T05:47:16.054Z,303.65
2018-11-10T05:47:51.175Z,327.10
2018-11-10T05:48:26.082Z,263.57
2018-11-10T05:49:01.174Z,223.25
2018-11-10T05:49:36.154Z,295.03
2018-11-10T05:50:11.315Z,246.65
2018-11-10T05:50:46.294Z,258.70
2018-11-10T05:51:21.582Z,266.35
2018-11-10T05:51:56.734Z,261.70
2018-11-10T05:52:31.922Z,365.10
2018-11-10T05:53:07.162Z,373.68
2018-11-10T05:53:42.262Z,373.85
2018-11-10T05:54:17.494Z,407.70
2018-11-10T05:54:52.410Z,337.20
2018-11-10T05:55:27.527Z,334.65
2018-11-10T05:56:02.481Z,355.43
2018-11-10T05:56:37.241Z,333.10
2018-11-10T05:57:12.291Z,340.87
2018-11-10T05:57:47.260Z,326.82
2018-11-10T05:58:22.319Z,519.62
2018-11-10T05:58:57.202Z,453.35
2018-11-10T05:59:32.280Z,388.93
2018-11-10T06:00:09.445Z,312.12
2018-11-10T06:00:44.921Z,313.48
2018-11-10T06:01:19.908Z,296.48
2018-11-10T06:01:54.959Z,277.93
2018-11-10T06:02:29.820Z,273.23
2018-11-10T06:03:04.885Z,401.93
2018-11-10T06:03:40.300Z,311.68
2018-11-10T06:04:15.320Z,291.40
2018-11-10T06:04:50.180Z,356.65
2018-11-10T06:05:25.080Z,292.48
2018-11-10T06:06:00.102Z,272.50
2018-11-10T06:06:35.239Z,345.40
2018-11-10T06:07:10.340Z,326.55
2018-11-10T06:07:45.420Z,307.27
2018-11-10T06:08:20.379Z,277.15
2018-11-10T06:08:55.475Z,286.67
2018-11-10T06:09:30.695Z,279.10
2018-11-10T06:10:06.801Z,290.48
2018-11-10T06:10:41.932Z,309.50
2018-11-10T06:11:17.286Z,309.27
2018-11-10T06:11:52.299Z,376.37
2018-11-10T06:12:27.699Z,348.18
2018-11-10T06:13:02.740Z,344.10
2018-11-10T06:13:37.880Z,253.98
2018-11-10T06:14:13.140Z,296.45
2018-11-10T06:14:48.201Z,263.52
2018-11-10T06:15:23.204Z,246.37
2018-11-10T06:15:58.430Z,275.48
2018-11-10T06:16:33.540Z,276.58
2018-11-10T06:17:08.719Z,271.10
2018-11-10T06:17:43.607Z,284.07
2018-11-10T06:18:18.619Z,291.42
2018-11-10T06:18:53.618Z,286.65
2018-11-10T06:19:28.919Z,275.27
2018-11-10T06:20:04.054Z,290.85
2018-11-10T06:20:39.021Z,316.12
2018-11-10T06:21:14.259Z,305.40
2018-11-10T06:21:49.299Z,302.62
2018-11-10T06:22:24.281Z,283.82
2018-11-10T06:22:59.180Z,257.23
2018-11-10T06:23:34.201Z,264.08
2018-11-10T06:24:09.261Z,330.35
2018-11-10T06:24:44.201Z,390.32
2018-11-10T06:25:19.326Z,381.32
2018-11-10T06:25:54.333Z,311.48
2018-11-10T06:26:29.759Z,264.17
2018-11-10T06:27:04.800Z,267.57
2018-11-10T06:27:40.068Z,309.52
2018-11-10T06:28:15.280Z,358.95
2018-11-10T06:28:50.320Z,350.35
2018-11-10T06:29:25.538Z,288.78
2018-11-10T06:30:00.679Z,265.02
2018-11-10T06:30:35.639Z,252.07
2018-11-10T06:31:10.520Z,296.10
2018-11-10T06:31:45.619Z,282.25
2018-11-10T06:32:20.522Z,283.15
2018-11-10T06:32:55.609Z,259.15
2018-11-10T06:33:30.881Z,307.32
2018-11-10T06:34:06.209Z,303.62
2018-11-10T06:34:41.262Z,374.40
2018-11-10T06:35:16.320Z,333.98
2018-11-10T06:35:51.201Z,347.07
2018-11-10T06:36:26.304Z,334.05
2018-11-10T06:37:01.524Z,320.82
2018-11-10T06:37:36.640Z,366.05
2018-11-10T06:38:11.720Z,342.65
2018-11-10T06:38:46.720Z,327.80
2018-11-10T06:39:21.959Z,267.30
2018-11-10T06:39:57.079Z,291.12
2018-11-10T06:40:32.079Z,340.12
2018-11-10T06:41:07.828Z,328.70
2018-11-10T06:41:43.281Z,367.65
2018-11-10T06:42:18.320Z,351.25
2018-11-10T06:42:53.261Z,376.95
2018-11-10T06:43:28.320Z,344.43
2018-11-10T06:44:03.379Z,322.37
2018-11-10T06:44:38.381Z,277.07
2018-11-10T06:45:13.199Z,315.48
2018-11-10T06:45:48.303Z,316.08
2018-11-10T06:46:23.259Z,298.35
2018-11-10T06:46:58.337Z,345.67
2018-11-10T06:47:33.299Z,336.10
2018-11-10T06:48:08.319Z,349.02
2018-11-10T06:48:43.202Z,350.55
2018-11-10T06:49:18.279Z,387.90
2018-11-10T06:49:53.441Z,372.67
2018-11-10T06:50:28.600Z,327.77
2018-11-10T06:51:03.668Z,353.50
2018-11-10T06:51:38.780Z,320.00
2018-11-10T06:52:14.060Z,278.35
2018-11-10T06:52:49.338Z,273.05
2018-11-10T06:53:24.340Z,312.42
2018-11-10T06:53:59.459Z,310.43
2018-11-10T06:54:34.628Z,358.57
2018-11-10T06:55:11.042Z,385.07
2018-11-10T06:55:46.279Z,319.20
2018-11-10T06:56:21.319Z,264.05
2018-11-10T06:56:56.248Z,283.43
2018-11-10T06:57:31.119Z,396.63
2018-11-10T06:58:06.280Z,334.73
2018-11-10T06:58:41.180Z,352.15
2018-11-10T06:59:16.048Z,413.63
2018-11-10T06:59:51.460Z,340.23
2018-11-10T07:00:26.479Z,344.90
2018-11-10T07:01:01.439Z,361.80
2018-11-10T07:01:36.480Z,306.27
2018-11-10T07:02:11.580Z,285.50
2018-11-10T07:02:46.579Z,329.65
2018-11-10T07:03:21.492Z,332.62
2018-11-10T07:03:56.453Z,363.20
2018-11-10T07:04:31.869Z,360.35
2018-11-10T07:05:07.622Z,335.17
2018-11-10T07:05:42.582Z,297.93
2018-11-10T07:06:17.400Z,320.20
2018-11-10T07:06:52.607Z,293.67
2018-11-10T07:07:27.859Z,279.70
2018-11-10T07:08:02.840Z,263.32
2018-11-10T07:08:37.699Z,282.83
2018-11-10T07:09:12.975Z,271.70
2018-11-10T07:09:48.103Z,255.47
2018-11-10T07:10:23.140Z,233.65
2018-11-10T07:10:59.400Z,244.85
2018-11-10T07:11:34.540Z,226.22
2018-11-10T07:12:09.559Z,228.05
2018-11-10T07:12:44.539Z,228.42
2018-11-10T07:13:19.607Z,217.30
2018-11-10T07:13:54.559Z,227.62
2018-11-10T07:14:29.479Z,250.90
2018-11-10T07:15:04.823Z,238.72
2018-11-10T07:15:39.739Z,239.70
2018-11-10T07:16:14.762Z,240.75
2018-11-10T07:16:49.600Z,232.92
2018-11-10T07:17:24.878Z,224.45
2018-11-10T07:18:00.278Z,225.25
2018-11-10T07:18:35.220Z,226.62
2018-11-10T07:19:10.379Z,239.70
2018-11-10T07:19:45.759Z,230.45
2018-11-10T07:20:20.839Z,230.75